AirNav   BOSE ProFlight Aviation Headset
 
 1415 users online  

CYPT Pelee Island Airport
Pelee Island, Ontario, Canada

GOING TO PELEE ISLAND?


FAA INFORMATION EFFECTIVE 24 MAY 2018

The information below comes from the U.S. Federal Avaition Administration (FAA). The FAA is not the official source of data for facilities located outside the United States, and THESE RECORDS ARE LIKELY NOT COMPLETE OR CORRECT.

Location

FAA Identifier: CYPT
Lat/Long: 41-46-42.0000N / 082-40-41.0000W
41-46.700000N / 082-40.683333W
41.7783333 / -82.6780556
(estimated)
Elevation: 571 ft. / 174 m (estimated)
Variation: 07W ()
Time zone: UTC -4 (UTC -5 during Standard Time)
Zip code: 43440

Airport Operations

Airport use: Open to the public
Activation date: 03/2005
Control tower: no
ARTCC: TORONTO CENTER
FSS: LONDON FIC FLIGHT SERVICE STATION
Attendance: 
Segmented circle: no

Airport Communications

WX AWOS-3 at PCW (18 nm SW): 118.775 (419-734-9955)

Nearby radio navigation aids

VOR radial/distance  VOR name  Freq  Var
YQGr173/29.1WINDSOR VOR/DME113.8006W
DJBr322/34.2DRYER VOR/DME113.6005W
CRLr118/38.4CARLETON VOR/DME115.7003W

 
NDB name  Hdg/Dist  Freq  Var  ID
PORT CLINTON036/17.842307WPCW .--. -.-. .--
GROSSE ILE139/28.741907WRYS .-. -.-- ...

Airport Services

Runway Information

Runway 9/27

Dimensions: 3300 x 75 ft. / 1006 x 23 m
Surface: asphalt
RUNWAY 9  RUNWAY 27
Traffic pattern: leftleft

Runway 18/36

Dimensions: 1500 x 20 ft. / 457 x 6 m
Surface: gravel
RUNWAY 18  RUNWAY 36
Traffic pattern: leftleft

Airport Ownership and Management from official FAA records

Ownership: Publicly-owned

Instrument Procedures

There are no published instrument procedures at CYPT.

Some nearby airports with instrument procedures:

KPCW - Erie-Ottawa International Airport (18 nm SW)
KONZ - Grosse Ile Municipal Airport (29 nm NW)
5A1 - Norwalk-Huron County Airport (33 nm S)
S24 - Sandusky County Regional Airport (33 nm SW)
KLPR - Lorain County Regional Airport (34 nm SE)
 
Loc | Ops | Rwys | IFR | FBO | Links
Com | Nav | Svcs | Stats | Notes

AirNav Hotels Sweepstakes
 
Aerial photo
No photo
 
Airport distance calculator
Flying to Pelee Island Airport? Find the distance to fly.

From to CYPT

Sunrise and sunset
Times for 19-Jun-2018
 Local
(UTC-4)
 Zulu
(UTC)
Morning civil twilight05:2209:22
Sunrise05:5709:57
Sunset21:0701:07
Evening civil twilight21:4201:42

Current date and time
Zulu (UTC)  19-Jun-2018 21:09:09
Local (UTC-4)  19-Jun-2018 17:09:09
 
METAR
KPCW 
18nm SW 
192055Z AUTO 07013G19KT 10SM CLR 23/16 A2996 RMK AO2
CXHA 
18nm NW 
192000Z AUTO 09004KT 24/15 RMK AO1 SLP140 T02380152 58018
TAF
CYQG 
32nm NW 
191738Z 1918/2018 07010KT P6SM OVC120 BECMG 1919/1921 12008KT FM200100 02005KT P6SM BKN080 RMK NXT FCST BY 200000Z
KDTW 
40nm NW 
191720Z 1918/2024 08009KT P6SM FEW050 BKN070 OVC100 TEMPO 1918/1922 P6SM -RA SCT050 OVC070 FM200300 06005KT P6SM OVC050 PROB30 2006/2012 5SM -SHRA OVC035
KDET 
40nm N 
191720Z 1918/2018 08009KT P6SM FEW050 BKN070 OVC100 TEMPO 1918/1922 P6SM -RA SCT050 OVC070 FM200300 06005KT P6SM OVC050 PROB30 2006/2012 5SM -SHRA OVC035
NOTAMs
Click for the latest NOTAMs
NOTAMs are issued by the DoD/FAA and will open in a separate window not controlled by AirNav.

 

 
 

Would you like to see your business listed on this page?

 If your business provides an interesting product or service to pilots, flight crews, aircraft, or users of the Pelee Island Airport, you should consider listing it here.  To start the listing process, click on the button below
 
Add a business
 

Other Pages about Pelee Island Airport

Update a link
 
Copyright © AirNav, LLC. All rights reserved. Privacy Policy  Contact